Time;durP1;ratioP1;P1;durP2;ratioP2;P2;SDS_P1;SDS_P2;PMS_P1;PMS_P2;Temp;Humidity;BMP_temperature;BMP_pressure;BME280_temperature;BME280_humidity;BME280_pressure;Samples;Min_cycle;Max_cycle;Signal;HPM_P1;HPM_P2
2023/02/25 00:00:57;;;;;;;;;;;3.80;99.90;;;;;;4950521;28;20014;-68
2023/02/25 00:03:23;;;;;;;;;;;3.70;99.90;;;;;;4951467;29;19933;-67
2023/02/25 00:05:50;;;;;;;;;;;3.70;99.90;;;;;;4950319;29;20386;-67
2023/02/25 00:08:17;;;;;;;;;;;3.70;99.90;;;;;;4947253;29;19998;-68
2023/02/25 00:10:44;;;;;;;;;;;3.60;99.90;;;;;;4950279;29;20013;-68
2023/02/25 00:13:11;;;;;;;;;;;3.60;99.90;;;;;;4949965;28;19927;-68
2023/02/25 00:15:40;;;;;;;;;;;3.50;99.90;;;;;;4948488;29;19927;-68
2023/02/25 00:18:08;;;;;;;;;;;3.50;99.90;;;;;;4942890;28;19985;-68
2023/02/25 00:20:35;;;;;;;;;;;3.50;99.90;;;;;;4932871;29;20321;-67
2023/02/25 00:23:02;;;;;;;;;;;3.40;99.90;;;;;;4934959;29;19962;-67
2023/02/25 00:25:28;;;;;;;;;;;3.40;99.90;;;;;;4938800;29;19966;-68
2023/02/25 00:27:55;;;;;;;;;;;3.40;99.90;;;;;;4950104;29;19973;-68
2023/02/25 00:30:22;;;;;;;;;;;3.30;99.90;;;;;;4956810;28;20286;-68
2023/02/25 00:32:50;;;;;;;;;;;3.40;99.90;;;;;;4957077;29;19926;-68
2023/02/25 00:35:18;;;;;;;;;;;3.30;99.90;;;;;;4956410;29;20011;-68
2023/02/25 00:37:44;;;;;;;;;;;3.30;99.90;;;;;;4957977;29;19980;-68
2023/02/25 00:40:13;;;;;;;;;;;3.30;99.90;;;;;;4957910;29;20366;-68
2023/02/25 00:42:41;;;;;;;;;;;3.40;99.90;;;;;;4955399;28;19927;-68
2023/02/25 00:45:09;;;;;;;;;;;3.40;99.90;;;;;;4956123;28;20411;-68
2023/02/25 00:47:35;;;;;;;;;;;3.40;99.90;;;;;;4957519;29;20476;-67
2023/02/25 00:50:03;;;;;;;;;;;3.40;99.90;;;;;;4957722;29;19988;-67
2023/02/25 00:52:32;;;;;;;;;;;3.40;99.90;;;;;;4957785;29;19931;-67
2023/02/25 00:54:59;;;;;;;;;;;3.40;99.90;;;;;;4957861;29;19932;-68
2023/02/25 00:57:25;;;;;;;;;;;3.40;99.90;;;;;;4957548;29;19926;-68
2023/02/25 00:59:52;;;;;;;;;;;3.40;99.90;;;;;;4955092;28;19974;-67
2023/02/25 01:02:19;;;;;;;;;;;3.50;99.90;;;;;;4957173;29;20397;-67
2023/02/25 01:04:45;;;;;;;;;;;3.50;99.90;;;;;;4956800;29;20034;-66
2023/02/25 01:07:12;;;;;;;;;;;3.50;99.90;;;;;;4957663;29;19927;-67
2023/02/25 01:09:40;;;;;;;;;;;3.60;99.90;;;;;;4941462;29;19966;-68
2023/02/25 01:12:07;;;;;;;;;;;3.60;99.90;;;;;;4938188;29;20382;-68
2023/02/25 01:14:34;;;;;;;;;;;3.60;99.90;;;;;;4953239;28;20041;-67
2023/02/25 01:17:02;;;;;;;;;;;3.50;99.90;;;;;;4956716;29;19930;-68
2023/02/25 01:19:29;;;;;;;;;;;3.40;99.90;;;;;;4957582;28;19927;-68
2023/02/25 01:21:56;;;;;;;;;;;3.40;99.90;;;;;;4956988;28;19930;-68
2023/02/25 01:24:24;;;;;;;;;;;3.50;99.90;;;;;;4957269;29;19931;-68
2023/02/25 01:26:53;;;;;;;;;;;3.60;99.90;;;;;;4957168;28;19927;-68
2023/02/25 01:29:21;;;;;;;;;;;3.70;99.90;;;;;;4955319;28;19998;-67
2023/02/25 01:31:51;;;;;;;;;;;3.70;99.90;;;;;;4956706;29;19927;-68
2023/02/25 01:34:18;;;;;;;;;;;3.70;99.90;;;;;;4952853;29;19930;-68
2023/02/25 01:36:45;;;;;;;;;;;3.60;99.90;;;;;;4949561;28;20412;-68
2023/02/25 01:39:13;;;;;;;;;;;3.50;99.90;;;;;;4953947;28;20009;-68
2023/02/25 01:41:39;;;;;;;;;;;3.40;99.90;;;;;;4953844;28;19927;-68
2023/02/25 01:44:09;;;;;;;;;;;3.30;99.90;;;;;;4952503;28;20476;-68
2023/02/25 01:46:36;;;;;;;;;;;3.20;99.90;;;;;;4952141;28;19926;-68
2023/02/25 01:49:05;;;;;;;;;;;3.10;99.90;;;;;;4953848;29;19962;-68
2023/02/25 01:51:33;;;;;;;;;;;3.10;99.90;;;;;;4946905;29;19926;-69
2023/02/25 01:54:01;;;;;;;;;;;3.00;99.90;;;;;;4953583;29;19927;-68
2023/02/25 01:56:30;;;;;;;;;;;2.90;99.90;;;;;;4953907;29;19977;-67
2023/02/25 01:58:58;;;;;;;;;;;2.90;99.90;;;;;;4952427;28;19926;-67
2023/02/25 02:01:29;;;;;;;;;;;2.90;99.90;;;;;;4946491;28;19926;-67
2023/02/25 02:03:56;;;;;;;;;;;2.90;99.90;;;;;;4936817;29;19927;-68
2023/02/25 02:06:26;;;;;;;;;;;3.00;99.90;;;;;;4951729;29;20021;-68
2023/02/25 02:08:54;;;;;;;;;;;3.00;99.90;;;;;;4952301;28;19993;-68
2023/02/25 02:11:20;;;;;;;;;;;3.10;99.90;;;;;;4952665;29;19962;-67
2023/02/25 02:13:49;;;;;;;;;;;3.20;99.90;;;;;;4951879;28;19926;-67
2023/02/25 02:16:22;;;;;;;;;;;3.20;99.90;;;;;;4949024;28;19980;-67
2023/02/25 02:18:51;;;;;;;;;;;3.30;99.90;;;;;;4942094;28;20347;-67
2023/02/25 02:21:26;;;;;;;;;;;3.40;99.90;;;;;;4933652;28;20017;-67
2023/02/25 02:24:05;;;;;;;;;;;3.40;99.90;;;;;;4933922;29;19927;-68
2023/02/25 02:26:45;;;;;;;;;;;3.40;99.90;;;;;;4934168;29;19927;-67
2023/02/25 02:29:20;;;;;;;;;;;3.40;99.90;;;;;;4946367;28;19933;-68
2023/02/25 02:31:55;;;;;;;;;;;3.50;99.90;;;;;;4939426;28;20336;-68
2023/02/25 02:34:30;;;;;;;;;;;3.50;99.90;;;;;;4934266;29;19973;-67
2023/02/25 02:37:04;;;;;;;;;;;3.50;99.90;;;;;;4934687;29;19981;-68
2023/02/25 02:39:37;;;;;;;;;;;3.60;99.90;;;;;;4951615;28;20346;-69
2023/02/25 02:42:08;;;;;;;;;;;3.60;99.90;;;;;;4952399;29;19933;-68
2023/02/25 02:44:37;;;;;;;;;;;3.60;99.90;;;;;;4946755;28;20465;-68
2023/02/25 02:47:09;;;;;;;;;;;3.70;99.90;;;;;;4951178;29;20017;-69
2023/02/25 02:49:37;;;;;;;;;;;3.70;99.90;;;;;;4953002;29;19927;-68
2023/02/25 02:52:06;;;;;;;;;;;3.60;99.90;;;;;;4952463;29;19933;-68
2023/02/25 02:54:35;;;;;;;;;;;3.60;99.90;;;;;;4947634;29;20374;-68
2023/02/25 02:57:03;;;;;;;;;;;3.70;99.90;;;;;;4938468;29;19927;-68
2023/02/25 02:59:32;;;;;;;;;;;3.60;99.90;;;;;;4949572;28;20320;-68
2023/02/25 03:02:02;;;;;;;;;;;3.60;99.90;;;;;;4947128;29;19926;-68
2023/02/25 03:04:33;;;;;;;;;;;3.60;99.90;;;;;;4942015;29;20020;-68
2023/02/25 03:07:02;;;;;;;;;;;3.60;99.90;;;;;;4945810;29;19927;-68
2023/02/25 03:09:30;;;;;;;;;;;3.70;99.90;;;;;;4942909;28;19926;-68
2023/02/25 03:11:57;;;;;;;;;;;3.60;99.90;;;;;;4943850;28;19933;-68
2023/02/25 03:14:24;;;;;;;;;;;3.70;99.90;;;;;;4948882;28;20295;-68
2023/02/25 03:16:54;;;;;;;;;;;3.70;99.90;;;;;;4949012;28;19985;-68
2023/02/25 03:19:25;;;;;;;;;;;3.70;99.90;;;;;;4953265;28;19930;-68
2023/02/25 03:21:56;;;;;;;;;;;3.80;99.90;;;;;;4950501;29;19926;-68
2023/02/25 03:24:27;;;;;;;;;;;3.80;99.90;;;;;;4937197;29;20374;-68
2023/02/25 03:26:54;;;;;;;;;;;3.70;99.90;;;;;;4951234;29;19927;-69
2023/02/25 03:29:21;;;;;;;;;;;3.70;99.90;;;;;;4940333;28;20013;-69
2023/02/25 03:31:55;;;;;;;;;;;3.80;99.90;;;;;;4949427;29;19926;-69
2023/02/25 03:34:25;;;;;;;;;;;3.80;99.90;;;;;;4937271;28;20013;-68
2023/02/25 03:36:55;;;;;;;;;;;3.80;99.90;;;;;;4941558;29;20347;-69
2023/02/25 03:39:25;;;;;;;;;;;3.80;99.90;;;;;;4933958;29;19927;-68
2023/02/25 03:41:54;;;;;;;;;;;3.70;99.90;;;;;;4949193;29;19934;-68
2023/02/25 03:44:22;;;;;;;;;;;3.70;99.90;;;;;;4940483;28;19933;-68
2023/02/25 03:46:48;;;;;;;;;;;3.80;99.90;;;;;;4947351;28;19960;-67
2023/02/25 03:49:19;;;;;;;;;;;3.80;99.90;;;;;;4947499;29;19927;-67
2023/02/25 03:51:47;;;;;;;;;;;3.80;99.90;;;;;;4946780;29;19930;-68
2023/02/25 03:54:18;;;;;;;;;;;3.80;99.90;;;;;;4944832;29;20013;-69
2023/02/25 03:56:46;;;;;;;;;;;3.80;99.90;;;;;;4939872;29;19974;-69
2023/02/25 03:59:13;;;;;;;;;;;3.80;99.90;;;;;;4943358;28;20010;-68
2023/02/25 04:01:40;;;;;;;;;;;3.80;99.90;;;;;;4951551;29;20013;-69
2023/02/25 04:04:07;;;;;;;;;;;3.80;99.90;;;;;;4949386;28;19974;-68
2023/02/25 04:06:34;;;;;;;;;;;3.80;99.90;;;;;;4944628;29;19927;-69
2023/02/25 04:09:01;;;;;;;;;;;3.80;99.90;;;;;;4944887;28;20013;-68
2023/02/25 04:11:29;;;;;;;;;;;3.80;99.90;;;;;;4952171;29;20044;-68
2023/02/25 04:13:56;;;;;;;;;;;3.80;99.90;;;;;;4944999;28;20558;-68
2023/02/25 04:16:22;;;;;;;;;;;3.80;99.90;;;;;;4950038;29;19927;-68
2023/02/25 04:18:49;;;;;;;;;;;3.80;99.90;;;;;;4949585;28;19980;-68
2023/02/25 04:21:25;;;;;;;;;;;3.80;99.90;;;;;;4951172;28;19927;-69
2023/02/25 04:23:52;;;;;;;;;;;3.80;99.90;;;;;;4942021;29;20018;-68
2023/02/25 04:26:18;;;;;;;;;;;3.80;99.90;;;;;;4946696;28;19930;-69
2023/02/25 04:28:47;;;;;;;;;;;3.80;99.90;;;;;;4950387;28;19966;-67
2023/02/25 04:31:13;;;;;;;;;;;3.90;99.90;;;;;;4951511;29;19935;-67
2023/02/25 04:33:40;;;;;;;;;;;3.90;99.90;;;;;;4950477;29;19958;-67
2023/02/25 04:36:21;;;;;;;;;;;3.90;99.90;;;;;;4951060;29;20032;-68
2023/02/25 04:38:47;;;;;;;;;;;3.90;99.90;;;;;;4946629;29;20026;-68
2023/02/25 04:41:14;;;;;;;;;;;3.90;99.90;;;;;;4939290;29;19934;-66
2023/02/25 04:43:41;;;;;;;;;;;4.00;99.90;;;;;;4950450;28;20017;-67
2023/02/25 04:46:10;;;;;;;;;;;4.00;99.90;;;;;;4950237;28;20009;-67
2023/02/25 04:48:38;;;;;;;;;;;4.00;99.90;;;;;;4950212;28;20427;-68
2023/02/25 04:51:05;;;;;;;;;;;4.00;99.90;;;;;;4945032;29;19934;-68
2023/02/25 04:53:32;;;;;;;;;;;4.00;99.90;;;;;;4932114;29;20440;-68
2023/02/25 04:56:01;;;;;;;;;;;4.00;99.90;;;;;;4949699;29;19926;-68
2023/02/25 04:58:28;;;;;;;;;;;4.00;99.90;;;;;;4949679;28;19932;-68
2023/02/25 05:00:56;;;;;;;;;;;4.00;99.90;;;;;;4945676;29;19927;-68
2023/02/25 05:03:25;;;;;;;;;;;4.00;99.90;;;;;;4940064;29;19966;-68
2023/02/25 05:05:52;;;;;;;;;;;4.00;99.90;;;;;;4950511;29;19926;-68
2023/02/25 05:08:18;;;;;;;;;;;4.00;99.90;;;;;;4950006;29;20389;-68
2023/02/25 05:10:46;;;;;;;;;;;3.90;99.90;;;;;;4949952;28;19965;-69
2023/02/25 05:13:13;;;;;;;;;;;3.90;99.90;;;;;;4945931;28;20060;-67
2023/02/25 05:15:39;;;;;;;;;;;3.90;99.90;;;;;;4943993;28;19968;-68
2023/02/25 05:18:06;;;;;;;;;;;3.90;99.90;;;;;;4960890;28;20473;-68
2023/02/25 05:20:34;;;;;;;;;;;3.90;99.90;;;;;;4961007;28;20027;-68
2023/02/25 05:23:04;;;;;;;;;;;3.90;99.90;;;;;;4951951;29;20027;-69
2023/02/25 05:25:32;;;;;;;;;;;3.90;99.90;;;;;;4943834;28;19989;-68
2023/02/25 05:27:59;;;;;;;;;;;4.00;99.90;;;;;;4948114;28;19949;-68
2023/02/25 05:30:26;;;;;;;;;;;3.90;99.90;;;;;;4952653;29;19933;-68
2023/02/25 05:32:52;;;;;;;;;;;4.00;99.90;;;;;;4959673;28;19934;-68
2023/02/25 05:35:19;;;;;;;;;;;4.00;99.90;;;;;;4954079;29;19974;-68
2023/02/25 05:37:48;;;;;;;;;;;4.00;99.90;;;;;;4942741;29;19927;-67
2023/02/25 05:40:14;;;;;;;;;;;4.10;99.90;;;;;;4956200;28;19931;-68
2023/02/25 05:42:41;;;;;;;;;;;4.10;99.90;;;;;;4948823;28;19934;-68
2023/02/25 05:45:10;;;;;;;;;;;4.10;99.90;;;;;;4950108;28;19926;-68
2023/02/25 05:47:37;;;;;;;;;;;4.10;99.90;;;;;;4948680;28;19981;-68
2023/02/25 05:50:03;;;;;;;;;;;4.10;99.90;;;;;;4938331;29;19970;-68
2023/02/25 05:52:30;;;;;;;;;;;4.10;99.90;;;;;;4952600;29;20386;-68
2023/02/25 05:54:58;;;;;;;;;;;4.10;99.90;;;;;;4940248;29;19927;-68
2023/02/25 05:57:25;;;;;;;;;;;4.10;99.90;;;;;;4935321;28;19930;-68
2023/02/25 05:59:52;;;;;;;;;;;4.10;99.90;;;;;;4941081;28;19952;-68
2023/02/25 06:02:19;;;;;;;;;;;4.00;99.90;;;;;;4952774;29;19973;-69
2023/02/25 06:04:46;;;;;;;;;;;4.00;99.90;;;;;;4952307;29;19937;-67
2023/02/25 06:07:13;;;;;;;;;;;4.00;99.90;;;;;;4953386;28;19973;-68
2023/02/25 06:09:40;;;;;;;;;;;4.00;99.90;;;;;;4936117;29;20420;-69
2023/02/25 06:12:08;;;;;;;;;;;4.00;99.90;;;;;;4934808;28;19939;-67
2023/02/25 06:14:35;;;;;;;;;;;4.10;99.90;;;;;;4952065;29;20009;-67
2023/02/25 06:17:01;;;;;;;;;;;4.10;99.90;;;;;;4952928;29;19931;-68
2023/02/25 06:19:28;;;;;;;;;;;4.20;99.90;;;;;;4952505;28;20015;-67
2023/02/25 06:21:55;;;;;;;;;;;4.00;99.90;;;;;;4949968;29;19926;-67
2023/02/25 06:24:23;;;;;;;;;;;3.90;99.90;;;;;;4941898;29;20018;-67
2023/02/25 06:26:50;;;;;;;;;;;3.90;99.90;;;;;;4934612;28;20353;-68
2023/02/25 06:29:18;;;;;;;;;;;3.90;99.90;;;;;;4952258;29;20262;-67
2023/02/25 06:31:45;;;;;;;;;;;3.80;99.90;;;;;;4950100;29;19933;-68
2023/02/25 06:34:12;;;;;;;;;;;3.70;99.90;;;;;;4951143;29;19926;-68
2023/02/25 06:36:38;;;;;;;;;;;3.60;99.90;;;;;;4952096;29;19927;-67
2023/02/25 06:39:05;;;;;;;;;;;3.60;99.90;;;;;;4948620;28;20460;-67
2023/02/25 06:41:32;;;;;;;;;;;3.70;99.90;;;;;;4933764;28;19927;-67
2023/02/25 06:43:59;;;;;;;;;;;3.60;99.90;;;;;;4948489;28;19937;-68
2023/02/25 06:46:27;;;;;;;;;;;3.60;99.90;;;;;;4952263;29;20473;-69
2023/02/25 06:48:54;;;;;;;;;;;3.60;99.90;;;;;;4952275;29;19926;-68
2023/02/25 06:51:21;;;;;;;;;;;3.60;99.90;;;;;;4936911;29;20013;-69
2023/02/25 06:53:48;;;;;;;;;;;3.60;99.90;;;;;;4951628;29;20013;-69
2023/02/25 06:56:18;;;;;;;;;;;3.60;99.90;;;;;;4950544;28;19980;-68
2023/02/25 06:58:45;;;;;;;;;;;3.60;99.90;;;;;;4949675;28;20381;-68
2023/02/25 07:01:13;;;;;;;;;;;3.60;99.90;;;;;;4949532;29;20397;-67
2023/02/25 07:03:42;;;;;;;;;;;3.60;99.90;;;;;;4952154;28;20025;-68
2023/02/25 07:06:10;;;;;;;;;;;3.70;99.90;;;;;;4938716;28;19930;-68
2023/02/25 07:08:37;;;;;;;;;;;3.70;99.90;;;;;;4951715;28;20021;-68
2023/02/25 07:11:10;;;;;;;;;;;3.80;99.90;;;;;;4950751;29;19934;-69
2023/02/25 07:13:37;;;;;;;;;;;3.70;99.90;;;;;;4950299;28;19926;-69
2023/02/25 07:16:04;;;;;;;;;;;3.70;99.90;;;;;;4950643;28;20350;-69
2023/02/25 07:18:31;;;;;;;;;;;3.70;99.90;;;;;;4949230;29;19972;-69
2023/02/25 07:20:59;;;;;;;;;;;3.80;99.90;;;;;;4934557;29;19986;-69
2023/02/25 07:23:26;;;;;;;;;;;3.90;99.90;;;;;;4951904;29;19933;-69
2023/02/25 07:25:55;;;;;;;;;;;3.90;99.90;;;;;;4937711;29;19927;-69
2023/02/25 07:28:22;;;;;;;;;;;4.00;99.90;;;;;;4944566;28;19974;-68
2023/02/25 07:30:49;;;;;;;;;;;4.10;99.90;;;;;;4945708;29;19931;-68
2023/02/25 07:33:16;;;;;;;;;;;4.20;99.90;;;;;;4945271;28;20024;-66
2023/02/25 07:35:42;;;;;;;;;;;4.20;99.90;;;;;;4939429;29;19927;-67
2023/02/25 07:38:11;;;;;;;;;;;4.30;99.90;;;;;;4938526;28;19930;-66
2023/02/25 07:40:39;;;;;;;;;;;4.40;99.90;;;;;;4944519;29;19933;-67
2023/02/25 07:43:06;;;;;;;;;;;4.40;99.90;;;;;;4945384;28;20400;-67
2023/02/25 07:45:33;;;;;;;;;;;4.40;99.90;;;;;;4940522;28;20021;-67
2023/02/25 07:48:00;;;;;;;;;;;4.50;99.90;;;;;;4977150;28;19935;-67
2023/02/25 07:50:27;;;;;;;;;;;4.40;99.90;;;;;;4975047;28;19934;-68
2023/02/25 07:52:54;;;;;;;;;;;4.40;99.90;;;;;;4953235;28;19968;-68
2023/02/25 07:55:22;;;;;;;;;;;4.30;99.90;;;;;;4954370;28;20396;-68
2023/02/25 07:57:48;;;;;;;;;;;4.30;99.90;;;;;;4953855;28;19934;-68
2023/02/25 08:00:16;;;;;;;;;;;4.40;99.90;;;;;;4957793;28;19930;-68
2023/02/25 08:02:43;;;;;;;;;;;4.50;99.90;;;;;;4948052;28;19931;-68
2023/02/25 08:05:10;;;;;;;;;;;4.60;99.90;;;;;;4964829;28;19980;-67
2023/02/25 08:07:37;;;;;;;;;;;4.80;99.90;;;;;;4951208;28;19934;-68
2023/02/25 08:10:05;;;;;;;;;;;5.10;99.90;;;;;;4953262;28;20041;-68
2023/02/25 08:12:33;;;;;;;;;;;5.30;99.90;;;;;;4943315;29;19930;-68
2023/02/25 08:15:00;;;;;;;;;;;5.50;99.90;;;;;;4956302;28;20009;-69
2023/02/25 08:17:38;;;;;;;;;;;5.50;99.90;;;;;;4942125;29;19935;-68
2023/02/25 08:20:05;;;;;;;;;;;5.40;99.90;;;;;;4940584;28;20301;-66
2023/02/25 08:22:32;;;;;;;;;;;6.00;99.90;;;;;;4939029;29;19927;-67
2023/02/25 08:24:59;;;;;;;;;;;7.90;99.90;;;;;;4966894;28;19931;-67
2023/02/25 08:27:25;;;;;;;;;;;9.40;99.90;;;;;;4970086;28;19927;-68
2023/02/25 08:29:54;;;;;;;;;;;9.70;99.90;;;;;;4948037;28;19926;-67
2023/02/25 08:32:21;;;;;;;;;;;10.60;99.70;;;;;;4952360;28;20271;-68
2023/02/25 08:34:50;;;;;;;;;;;10.90;96.10;;;;;;4941041;29;19930;-68
2023/02/25 08:37:17;;;;;;;;;;;9.90;97.00;;;;;;4948992;29;19934;-68
2023/02/25 08:39:43;;;;;;;;;;;7.90;99.90;;;;;;4950018;28;19927;-67
2023/02/25 08:42:11;;;;;;;;;;;7.00;99.90;;;;;;4959373;28;19933;-68
2023/02/25 08:44:38;;;;;;;;;;;6.30;99.90;;;;;;4945492;28;19927;-68
2023/02/25 08:47:06;;;;;;;;;;;6.20;99.90;;;;;;4961992;28;19931;-66
2023/02/25 08:49:32;;;;;;;;;;;6.40;99.90;;;;;;4951933;28;19926;-67
2023/02/25 08:51:59;;;;;;;;;;;6.90;99.90;;;;;;4953465;28;19970;-67
2023/02/25 08:54:26;;;;;;;;;;;6.80;99.90;;;;;;4964673;28;20884;-67
2023/02/25 08:56:54;;;;;;;;;;;6.60;99.90;;;;;;4963335;28;19933;-66
2023/02/25 08:59:21;;;;;;;;;;;6.60;99.90;;;;;;4952784;29;20436;-67
2023/02/25 09:01:49;;;;;;;;;;;6.40;99.90;;;;;;4985766;28;19934;-67
2023/02/25 09:04:18;;;;;;;;;;;5.60;99.90;;;;;;4955460;28;19927;-67
2023/02/25 09:06:46;;;;;;;;;;;5.20;99.90;;;;;;4981720;28;19980;-67
2023/02/25 09:09:13;;;;;;;;;;;4.90;99.90;;;;;;4958049;28;19927;-67
2023/02/25 09:11:39;;;;;;;;;;;5.00;99.90;;;;;;5004029;28;20384;-68
2023/02/25 09:14:06;;;;;;;;;;;5.60;99.90;;;;;;4954078;28;19927;-67
2023/02/25 09:16:33;;;;;;;;;;;7.60;99.90;;;;;;4946093;28;19927;-67
2023/02/25 09:19:00;;;;;;;;;;;9.30;99.90;;;;;;4948856;29;19934;-68
2023/02/25 09:21:28;;;;;;;;;;;10.00;99.90;;;;;;4973376;28;20014;-68
2023/02/25 09:23:55;;;;;;;;;;;10.20;99.90;;;;;;4952288;28;19972;-67
2023/02/25 09:26:22;;;;;;;;;;;9.90;99.60;;;;;;4976019;28;20009;-68
2023/02/25 09:28:49;;;;;;;;;;;10.20;98.80;;;;;;4974017;28;19933;-68
2023/02/25 09:31:16;;;;;;;;;;;10.20;99.30;;;;;;4938747;28;20508;-67
2023/02/25 09:33:43;;;;;;;;;;;9.70;98.60;;;;;;4945394;28;19927;-67
2023/02/25 09:36:14;;;;;;;;;;;10.00;98.90;;;;;;4946741;28;20005;-67
2023/02/25 09:38:44;;;;;;;;;;;10.30;97.70;;;;;;4947517;28;19989;-69
2023/02/25 09:41:19;;;;;;;;;;;10.80;96.00;;;;;;4957138;28;20042;-67
2023/02/25 09:43:46;;;;;;;;;;;10.90;97.00;;;;;;4955632;28;19970;-68
2023/02/25 09:46:17;;;;;;;;;;;11.50;95.80;;;;;;4971442;28;19925;-68
2023/02/25 09:48:50;;;;;;;;;;;10.10;95.20;;;;;;4947964;28;19941;-67
2023/02/25 09:51:18;;;;;;;;;;;8.60;99.80;;;;;;4951768;28;20004;-65
2023/02/25 09:53:49;;;;;;;;;;;7.40;99.90;;;;;;4946943;28;19935;-66
2023/02/25 09:56:18;;;;;;;;;;;7.00;99.90;;;;;;4995673;28;19928;-66
2023/02/25 09:58:46;;;;;;;;;;;6.90;99.90;;;;;;4966645;28;19970;-66
2023/02/25 10:01:15;;;;;;;;;;;6.70;99.90;;;;;;4969133;28;20416;-69
2023/02/25 10:03:52;;;;;;;;;;;6.70;99.90;;;;;;4950527;28;19926;-69
2023/02/25 10:06:22;;;;;;;;;;;7.00;99.90;;;;;;4949324;28;19939;-68
2023/02/25 10:08:58;;;;;;;;;;;7.30;99.90;;;;;;4958405;28;20044;-68
2023/02/25 10:11:32;;;;;;;;;;;7.80;99.90;;;;;;4962457;28;19927;-68
2023/02/25 10:14:03;;;;;;;;;;;7.80;99.90;;;;;;4951670;28;19930;-67
2023/02/25 10:16:36;;;;;;;;;;;7.40;99.90;;;;;;4947584;28;20023;-66
2023/02/25 10:19:08;;;;;;;;;;;7.10;99.90;;;;;;4950293;28;20007;-67
2023/02/25 10:21:43;;;;;;;;;;;6.90;99.90;;;;;;4967033;28;20032;-67
2023/02/25 10:24:18;;;;;;;;;;;6.80;99.90;;;;;;4949430;28;20017;-68
2023/02/25 10:26:49;;;;;;;;;;;6.80;99.90;;;;;;4950409;28;19937;-67
2023/02/25 10:29:20;;;;;;;;;;;6.60;99.90;;;;;;4968366;28;20300;-68
2023/02/25 10:31:47;;;;;;;;;;;6.40;99.90;;;;;;4960643;28;19925;-67
2023/02/25 10:34:24;;;;;;;;;;;6.20;99.90;;;;;;4950734;28;20019;-67
2023/02/25 10:36:53;;;;;;;;;;;5.10;99.90;;;;;;4950629;28;19927;-66
2023/02/25 10:39:21;;;;;;;;;;;4.90;99.90;;;;;;4962043;28;19927;-68
2023/02/25 10:41:48;;;;;;;;;;;4.80;99.90;;;;;;4978962;28;21955;-67
2023/02/25 10:44:15;;;;;;;;;;;4.80;99.90;;;;;;4969629;28;19930;-67
2023/02/25 10:46:46;;;;;;;;;;;5.10;99.90;;;;;;4961794;28;20006;-66
2023/02/25 10:49:14;;;;;;;;;;;5.10;99.90;;;;;;4969542;28;20003;-67
2023/02/25 10:51:56;;;;;;;;;;;5.10;99.90;;;;;;4947879;28;19937;-67
2023/02/25 10:54:24;;;;;;;;;;;5.10;99.90;;;;;;4962957;28;19927;-67
2023/02/25 10:56:52;;;;;;;;;;;5.40;99.90;;;;;;4951785;29;19926;-67
2023/02/25 10:59:24;;;;;;;;;;;5.50;99.90;;;;;;4951493;29;20404;-68
2023/02/25 11:01:52;;;;;;;;;;;5.70;99.90;;;;;;4951462;29;19926;-68
2023/02/25 11:04:20;;;;;;;;;;;5.90;99.90;;;;;;4951435;29;19933;-67
2023/02/25 11:06:47;;;;;;;;;;;6.00;99.90;;;;;;4953328;28;20441;-67
2023/02/25 11:09:30;;;;;;;;;;;6.30;99.90;;;;;;4952005;29;19952;-67
2023/02/25 11:11:58;;;;;;;;;;;6.40;99.90;;;;;;4954530;28;19926;-68
2023/02/25 11:14:29;;;;;;;;;;;6.50;99.90;;;;;;4954808;28;19927;-67
2023/02/25 11:17:06;;;;;;;;;;;6.70;99.90;;;;;;4952010;28;20009;-67
2023/02/25 11:19:36;;;;;;;;;;;7.00;99.90;;;;;;4947562;29;19934;-67
2023/02/25 11:22:07;;;;;;;;;;;6.90;99.90;;;;;;4936923;29;20013;-69
2023/02/25 11:24:37;;;;;;;;;;;7.20;99.90;;;;;;4948520;28;19934;-68
2023/02/25 11:27:05;;;;;;;;;;;7.60;99.90;;;;;;4956341;28;20481;-68
2023/02/25 11:29:33;;;;;;;;;;;7.90;99.90;;;;;;4953857;28;20000;-68
2023/02/25 11:32:03;;;;;;;;;;;8.10;99.90;;;;;;4951008;28;19930;-68
2023/02/25 11:34:30;;;;;;;;;;;7.50;99.90;;;;;;4970677;28;19996;-69
2023/02/25 11:37:17;;;;;;;;;;;7.20;99.90;;;;;;4970887;28;19961;-68
2023/02/25 11:39:51;;;;;;;;;;;7.40;99.90;;;;;;4957961;28;19934;-67
2023/02/25 11:42:21;;;;;;;;;;;7.50;99.90;;;;;;4950180;28;20305;-68
2023/02/25 11:44:48;;;;;;;;;;;7.50;99.90;;;;;;4949805;28;19926;-68
2023/02/25 11:47:21;;;;;;;;;;;7.40;99.90;;;;;;4950268;28;19926;-68
2023/02/25 11:50:05;;;;;;;;;;;7.00;99.90;;;;;;4954239;28;19973;-68
2023/02/25 11:52:35;;;;;;;;;;;6.60;99.90;;;;;;4971193;28;19973;-67
2023/02/25 11:55:11;;;;;;;;;;;6.50;99.90;;;;;;4947390;28;20393;-68
2023/02/25 11:57:46;;;;;;;;;;;6.40;99.90;;;;;;4952378;28;19926;-67
2023/02/25 12:00:18;;;;;;;;;;;6.40;99.90;;;;;;4949654;28;20007;-68
2023/02/25 12:02:52;;;;;;;;;;;6.40;99.90;;;;;;4943292;29;19927;-68
2023/02/25 12:05:37;;;;;;;;;;;6.40;99.90;;;;;;4950198;28;19927;-66
2023/02/25 12:08:31;;;;;;;;;;;6.20;99.90;;;;;;4950974;29;19934;-68
2023/02/25 12:11:16;;;;;;;;;;;6.00;99.90;;;;;;4967263;28;19933;-67
2023/02/25 12:14:04;;;;;;;;;;;6.00;99.90;;;;;;4931856;29;20021;-69
2023/02/25 12:16:50;;;;;;;;;;;6.10;99.90;;;;;;4952515;28;20029;-68
2023/02/25 12:19:27;;;;;;;;;;;6.30;99.90;;;;;;4946650;28;20459;-68
2023/02/25 12:22:17;;;;;;;;;;;6.70;99.90;;;;;;4953578;28;19933;-69
2023/02/25 12:25:02;;;;;;;;;;;6.80;99.90;;;;;;4936520;28;20432;-68
2023/02/25 12:27:40;;;;;;;;;;;7.00;99.90;;;;;;4934308;28;20309;-68
2023/02/25 12:30:25;;;;;;;;;;;7.30;99.90;;;;;;4937426;28;20000;-67
2023/02/25 12:33:01;;;;;;;;;;;7.50;96.20;;;;;;4948010;28;19927;-67
2023/02/25 12:35:39;;;;;;;;;;;7.50;94.00;;;;;;4965179;28;20011;-68
2023/02/25 12:38:22;;;;;;;;;;;7.50;92.70;;;;;;4953516;28;19934;-68
2023/02/25 12:41:02;;;;;;;;;;;7.70;93.40;;;;;;4952594;28;20029;-69
2023/02/25 12:43:35;;;;;;;;;;;8.00;93.50;;;;;;4939010;29;19934;-68
2023/02/25 12:46:12;;;;;;;;;;;8.10;93.20;;;;;;4950163;28;20292;-68
2023/02/25 12:48:47;;;;;;;;;;;8.00;91.50;;;;;;4950421;29;19927;-68
2023/02/25 12:51:31;;;;;;;;;;;7.70;92.70;;;;;;4997321;28;20309;-68
2023/02/25 12:54:03;;;;;;;;;;;7.40;92.60;;;;;;4949351;29;19926;-67
2023/02/25 12:56:52;;;;;;;;;;;7.20;94.20;;;;;;4949516;28;19926;-66
2023/02/25 12:59:28;;;;;;;;;;;7.30;96.10;;;;;;4946609;28;19927;-69
2023/02/25 13:02:01;;;;;;;;;;;7.90;94.00;;;;;;4951657;28;20009;-68
2023/02/25 13:04:46;;;;;;;;;;;7.80;94.30;;;;;;4968389;28;19974;-69
2023/02/25 13:07:30;;;;;;;;;;;7.60;95.80;;;;;;4949529;28;20017;-67
2023/02/25 13:10:14;;;;;;;;;;;6.90;82.70;;;;;;4966228;28;19976;-68
2023/02/25 13:12:52;;;;;;;;;;;6.50;77.90;;;;;;4947492;28;20017;-67
2023/02/25 13:15:21;;;;;;;;;;;6.50;82.60;;;;;;4947792;28;19933;-70
2023/02/25 13:18:05;;;;;;;;;;;6.80;81.80;;;;;;4948694;28;19927;-67
2023/02/25 13:23:39;;;;;;;;;;;7.20;77.10;;;;;;4948598;29;19927;-68
2023/02/25 13:26:12;;;;;;;;;;;7.00;74.50;;;;;;4966116;28;19927;-67
2023/02/25 13:28:44;;;;;;;;;;;6.90;72.00;;;;;;4967060;28;19931;-67
2023/02/25 13:31:15;;;;;;;;;;;6.80;79.10;;;;;;4950642;28;19931;-67
2023/02/25 13:33:59;;;;;;;;;;;6.90;78.90;;;;;;4958371;28;19932;-67
2023/02/25 13:36:38;;;;;;;;;;;6.80;80.30;;;;;;5023555;28;20395;-68
2023/02/25 13:39:21;;;;;;;;;;;6.90;81.90;;;;;;4956860;28;20301;-67
2023/02/25 13:41:55;;;;;;;;;;;7.00;83.70;;;;;;4958358;28;19932;-68
2023/02/25 13:44:28;;;;;;;;;;;6.80;84.60;;;;;;4952694;29;19968;-68
2023/02/25 13:47:12;;;;;;;;;;;6.70;82.80;;;;;;4985972;28;19926;-67
2023/02/25 13:50:12;;;;;;;;;;;6.80;84.10;;;;;;4947226;28;19973;-68
2023/02/25 13:52:47;;;;;;;;;;;6.70;86.00;;;;;;4974786;28;19926;-68
2023/02/25 13:55:23;;;;;;;;;;;6.70;87.70;;;;;;4991680;28;19930;-67
2023/02/25 13:57:55;;;;;;;;;;;6.60;88.60;;;;;;4989326;28;19926;-67
2023/02/25 14:00:33;;;;;;;;;;;6.70;88.30;;;;;;4953113;29;19926;-68
2023/02/25 14:03:17;;;;;;;;;;;6.80;90.80;;;;;;4938270;29;20389;-68
2023/02/25 14:05:54;;;;;;;;;;;7.20;91.50;;;;;;4957405;28;19926;-67
2023/02/25 14:08:43;;;;;;;;;;;7.30;89.90;;;;;;4945327;29;19931;-69
2023/02/25 14:11:19;;;;;;;;;;;7.40;90.80;;;;;;4957523;28;19941;-68
2023/02/25 14:13:52;;;;;;;;;;;7.40;90.40;;;;;;4975940;28;19974;-67
2023/02/25 14:16:27;;;;;;;;;;;7.50;92.00;;;;;;4961604;28;19987;-67
2023/02/25 14:19:05;;;;;;;;;;;7.30;91.50;;;;;;4967664;28;19934;-67
2023/02/25 14:21:56;;;;;;;;;;;6.80;92.10;;;;;;4951661;28;19937;-67
2023/02/25 14:24:29;;;;;;;;;;;6.40;93.50;;;;;;4936879;28;20456;-67
2023/02/25 14:27:02;;;;;;;;;;;6.30;94.10;;;;;;4952004;28;19958;-67
2023/02/25 14:29:33;;;;;;;;;;;6.20;91.30;;;;;;4951739;29;19972;-68
2023/02/25 14:32:13;;;;;;;;;;;6.20;91.10;;;;;;4944740;28;19966;-67
2023/02/25 14:34:49;;;;;;;;;;;6.10;90.70;;;;;;4945745;28;20303;-68
2023/02/25 14:37:30;;;;;;;;;;;6.20;90.70;;;;;;4991390;28;19927;-67
2023/02/25 14:40:06;;;;;;;;;;;6.20;91.20;;;;;;4950057;28;19926;-67
2023/02/25 14:42:52;;;;;;;;;;;6.20;91.10;;;;;;4951347;28;20301;-68
2023/02/25 14:45:21;;;;;;;;;;;6.20;92.20;;;;;;4951638;28;19931;-67
2023/02/25 14:47:51;;;;;;;;;;;6.10;91.80;;;;;;4941436;28;19933;-67
2023/02/25 14:50:20;;;;;;;;;;;6.10;92.30;;;;;;4956587;28;19932;-68